Nipigon, Canada
Current Conditions -  °F | °C
As of 5:00 PM on Thursday 23 Oct 2014 (Local Time) from CYQT Reporting Station
Overcast Overcast  
Wind Chill: 50°   Ceiling: 1200
Heat Index: 50°   Visibility: 10mi
Dew Point: 48°   Wind: 6mph
Humidity: 94%   Direction: 60°ENE
Pressure: 29.94"   Gusts: NA
Location:  49.01°N, 88.26°W
Report Text: CYQT 232100Z 06005KT 10SM FEW007 BKN012 OVC030 10/09 A2994 RMK SF1SC6SC1 SLP144
Loading
Personal Weather Stations






























Interactive Weather Map
Tropical Storm Tracking
New forecast layout! Learn more

10-Day Weather Forecast

Advertisements
Track Severe Weather on mobile